Home > Products > Valid Products > TAF

000
FTUS43 KARX 221125
TAFRST
TAF
KRST 221125Z 2212/2312 17008KT P6SM SKC
     FM221400 17014KT P6SM BKN045
     FM221600 16017G23KT P6SM SCT250
     FM230000 16014KT P6SM SCT040 BKN100
     FM230600 18012KT P6SM -SHRA OVC035
      TEMPO 2308/2312 4SM -RA OVC020=



000
FTUS43 KARX 221125
TAFLSE
TAF
KLSE 221125Z 2212/2312 12005KT P6SM SKC
     FM221600 16010KT P6SM SCT040
     FM230200 15007KT P6SM SCT060 BKN250
     FM230800 17007KT P6SM -SHRA BKN040=



000
FTUS43 KARX 221022 AAA
TAFLSE
TAF AMD
KLSE 221022Z 2210/2306 11004KT P6SM SKC
     FM221600 16010KT P6SM SCT250
     FM230000 15007KT P6SM SCT060 BKN250=



000
FTUS43 KARX 220525
TAFRST
TAF
KRST 220525Z 2206/2306 14009KT P6SM SKC
     FM221300 15012KT P6SM SKC
     FM221600 16017G23KT P6SM SCT250
     FM230000 16013KT P6SM SCT040 BKN150=



000
FTUS43 KARX 220525
TAFLSE
TAF
KLSE 220525Z 2206/2306 12005KT P6SM SKC
     FM221000 14005KT P6SM BCFG SKC
     FM221600 16010KT P6SM SCT250
     FM230000 15007KT P6SM SCT060 BKN250=



000
FTUS43 KARX 220525
TAFLSE
TAF
KLSE 220525Z 2206/2306 12005KT P6SM SKC
     FM221000 14005KT P6SM BCFG SKC
     FM221600 16010KT P6SM SCT250
     FM230000 15007KT P6SM SCT060 BKN250=



000
FTUS43 KARX 220525
TAFRST
TAF
KRST 220525Z 2206/2306 14009KT P6SM SKC
     FM221300 15012KT P6SM SKC
     FM221600 16017G23KT P6SM SCT250
     FM230000 16013KT P6SM SCT040 BKN150=



000
FTUS43 KARX 212330
TAFLSE
TAF
KLSE 212330Z 2200/2224 12005KT P6SM SKC
     FM221600 16010KT P6SM SCT250=



000
FTUS43 KARX 212330
TAFRST
TAF
KRST 212330Z 2200/2224 13008KT P6SM SKC
     FM221200 15011KT P6SM SKC
     FM221700 16016G22KT P6SM SCT250=



000
FTUS43 KARX 211730
TAFLSE
TAF
KLSE 211730Z 2118/2218 13006KT P6SM FEW025
     FM212300 10005KT P6SM SKC=



000
FTUS43 KARX 211730
TAFRST
TAF
KRST 211730Z 2118/2218 13009KT P6SM SKC
     FM220600 13008KT P6SM SKC=



000
FTUS43 KARX 211122
TAFLSE
TAF
KLSE 211122Z 2112/2212 36005KT P6SM SCT003
     FM211600 10005KT P6SM SKC=



000
FTUS43 KARX 211122
TAFRST
TAF
KRST 211122Z 2112/2212 06005KT P6SM SKC
     FM211600 13008KT P6SM SKC=



000
FTUS43 KARX 211122
TAFLSE
TAF
KLSE 211122Z 2112/2212 36005KT P6SM SCT003
     FM211600 10005KT P6SM SKC=



000
FTUS43 KARX 211122
TAFRST
TAF
KRST 211122Z 2112/2212 06005KT P6SM SKC
     FM211600 13008KT P6SM SKC=



000
FTUS43 KARX 211122
TAFRST
TAF
KRST 211122Z 2112/2212 06005KT P6SM SKC
     FM211600 13008KT P6SM SKC=



000
FTUS43 KARX 211122
TAFLSE
TAF
KLSE 211122Z 2112/2212 36005KT P6SM SCT003
     FM211600 10005KT P6SM SKC=



000
FTUS43 KARX 211122
TAFLSE
TAF
KLSE 211122Z 2112/2212 36005KT P6SM SCT003
     FM211600 10005KT P6SM SKC=



000
FTUS43 KARX 211122
TAFRST
TAF
KRST 211122Z 2112/2212 06005KT P6SM SKC
     FM211600 13008KT P6SM SKC=



000
FTUS43 KARX 210520
TAFLSE
TAF
KLSE 210520Z 2106/2206 02003KT P6SM SKC
     FM211600 10005KT P6SM SKC=



000
FTUS43 KARX 210520
TAFRST
TAF
KRST 210520Z 2106/2206 06005KT P6SM SKC
     FM211600 13008KT P6SM SKC=



000
FTUS43 KARX 210520
TAFRST
TAF
KRST 210520Z 2106/2206 06005KT P6SM SKC
     FM211600 13008KT P6SM SKC=



000
FTUS43 KARX 210520
TAFLSE
TAF
KLSE 210520Z 2106/2206 02003KT P6SM SKC
     FM211600 10005KT P6SM SKC=



000
FTUS43 KARX 202331
TAFRST
TAF
KRST 202331Z 2100/2124 34007KT P6SM SKC
     FM210600 04005KT P6SM SKC
     FM211600 11007KT P6SM SKC=



000
FTUS43 KARX 202331
TAFLSE
TAF
KLSE 202331Z 2100/2124 02003KT P6SM SKC
     FM211600 06005KT P6SM SKC=



000
FTUS43 KARX 202331
TAFLSE
TAF
KLSE 202331Z 2100/2124 02003KT P6SM SKC
     FM211600 06005KT P6SM SKC=



000
FTUS43 KARX 202331
TAFRST
TAF
KRST 202331Z 2100/2124 34007KT P6SM SKC
     FM210600 04005KT P6SM SKC
     FM211600 11007KT P6SM SKC=



000
FTUS43 KARX 202024 AAA
TAFLSE
TAF AMD
KLSE 202024Z 2020/2118 32009G16KT P6SM SCT040
     FM202300 34008KT P6SM SCT040
     FM210600 02004KT P6SM SKC=



000
FTUS43 KARX 202024 AAA
TAFLSE
TAF AMD
KLSE 202024Z 2020/2118 32009G16KT P6SM SCT040
     FM202300 34008KT P6SM SCT040
     FM210600 02004KT P6SM SKC=



000
FTUS43 KARX 201721
TAFRST
TAF
KRST 201721Z 2018/2118 33009G16KT P6SM SCT035
     FM202300 35008KT P6SM SKC
     FM210600 07005KT P6SM SKC=



000
FTUS43 KARX 201721
TAFLSE
TAF
KLSE 201721Z 2018/2118 32010G17KT P6SM BKN035
     FM202300 34008KT P6SM BKN035
     FM210200 36004KT P6SM SCT035
     FM210600 02004KT P6SM SKC=



000
FTUS43 KARX 201721
TAFLSE
TAF
KLSE 201721Z 2018/2118 32010G17KT P6SM BKN035
     FM202300 34008KT P6SM BKN035
     FM210200 36004KT P6SM SCT035
     FM210600 02004KT P6SM SKC=



000
FTUS43 KARX 201721
TAFRST
TAF
KRST 201721Z 2018/2118 33009G16KT P6SM SCT035
     FM202300 35008KT P6SM SKC
     FM210600 07005KT P6SM SKC=



000
FTUS43 KARX 201720
TAFLSE
TAF
KLSE 201720Z 2018/2118 32010G17KT P6SM BKN035
     FM202300 34008KT P6SM BKN035
     FM210200 36004KT P6SM SCT035
     FM210600 03003KT P6SM SKC=



000
FTUS43 KARX 201720
TAFRST
TAF
KRST 201720Z 2018/2118 33009G16KT P6SM SCT035
     FM202300 35008KT P6SM SKC
     FM210600 07005KT P6SM SKC=



000
FTUS43 KARX 201720
TAFRST
TAF
KRST 201720Z 2018/2118 33009G16KT P6SM SCT035
     FM202300 35008KT P6SM SKC
     FM210600 07005KT P6SM SKC=



000
FTUS43 KARX 201720
TAFLSE
TAF
KLSE 201720Z 2018/2118 32010G17KT P6SM BKN035
     FM202300 34008KT P6SM BKN035
     FM210200 36004KT P6SM SCT035
     FM210600 03003KT P6SM SKC=



000
FTUS43 KARX 201125
TAFRST
TAF
KRST 201125Z 2012/2112 29005KT P6SM SKC
     FM201400 33010KT P6SM SCT030
     FM201700 33012G20KT P6SM SCT035
     FM202230 35008KT P6SM SKC
     FM210600 07005KT P6SM SKC=



000
FTUS43 KARX 201125
TAFRST
TAF
KRST 201125Z 2012/2112 29005KT P6SM SKC
     FM201400 33010KT P6SM SCT030
     FM201700 33012G20KT P6SM SCT035
     FM202230 35008KT P6SM SKC
     FM210600 07005KT P6SM SKC=



000
FTUS43 KARX 201125
TAFLSE
TAF
KLSE 201125Z 2012/2112 00000KT P6SM SKC
     FM201400 33008KT P6SM SCT035
     FM201600 33009KT P6SM BKN035
     FM210200 36004KT P6SM SCT035
     FM210600 04003KT P6SM SKC=



000
FTUS43 KARX 201125
TAFLSE
TAF
KLSE 201125Z 2012/2112 00000KT P6SM SKC
     FM201400 33008KT P6SM SCT035
     FM201600 33009KT P6SM BKN035
     FM210200 36004KT P6SM SCT035
     FM210600 04003KT P6SM SKC=



000
FTUS43 KARX 200520
TAFLSE
TAF
KLSE 200520Z 2006/2106 16006KT P6SM SKC
     FM200800 32007KT P6SM SKC
     FM201400 33008KT P6SM SCT040
     FM201600 33009KT P6SM BKN040
     FM202300 35005KT P6SM SCT040=



000
FTUS43 KARX 200520
TAFRST
TAF
KRST 200520Z 2006/2106 31009KT P6SM SKC
     FM201400 33010KT P6SM SCT030
     FM201700 33012G20KT P6SM SCT035
     FM202230 36008KT P6SM SCT200=



000
FTUS43 KARX 200520
TAFRST
TAF
KRST 200520Z 2006/2106 31009KT P6SM SKC
     FM201400 33010KT P6SM SCT030
     FM201700 33012G20KT P6SM SCT035
     FM202230 36008KT P6SM SCT200=



000
FTUS43 KARX 200520
TAFLSE
TAF
KLSE 200520Z 2006/2106 16006KT P6SM SKC
     FM200800 32007KT P6SM SKC
     FM201400 33008KT P6SM SCT040
     FM201600 33009KT P6SM BKN040
     FM202300 35005KT P6SM SCT040=



000
FTUS43 KARX 200520
TAFLSE
TAF
KLSE 200520Z 2006/2106 16006KT P6SM SKC
     FM200800 32007KT P6SM SKC
     FM201400 33008KT P6SM SCT040
     FM201600 33009KT P6SM BKN040
     FM202300 35005KT P6SM SCT040=



000
FTUS43 KARX 200520
TAFRST
TAF
KRST 200520Z 2006/2106 31009KT P6SM SKC
     FM201400 33010KT P6SM SCT030
     FM201700 33012G20KT P6SM SCT035
     FM202230 36008KT P6SM SCT200=



000
FTUS43 KARX 192320
TAFLSE
TAF
KLSE 192320Z 2000/2024 19008KT P6SM SKC
     FM200400 28006KT P6SM SKC
     FM200700 32006KT P6SM SKC
     FM201200 33008KT P6SM SCT040
     FM201500 32009KT P6SM BKN040=



000
FTUS43 KARX 192320
TAFRST
TAF
KRST 192320Z 2000/2024 25012KT P6SM SKC
     FM200300 29011KT P6SM SKC
     FM200600 32011KT P6SM SKC
     FM201200 32008KT P6SM SCT030
     FM201700 33012G20KT P6SM SCT035=



000
FTUS43 KARX 192320
TAFRST
TAF
KRST 192320Z 2000/2024 25012KT P6SM SKC
     FM200300 29011KT P6SM SKC
     FM200600 32011KT P6SM SKC
     FM201200 32008KT P6SM SCT030
     FM201700 33012G20KT P6SM SCT035=



000
FTUS43 KARX 192320
TAFLSE
TAF
KLSE 192320Z 2000/2024 19008KT P6SM SKC
     FM200500 28006KT P6SM SKC
     FM200600 32006KT P6SM SKC
     FM201200 33008KT P6SM SCT040
     FM201500 32009KT P6SM BKN040=



000
FTUS43 KARX 192320
TAFLSE
TAF
KLSE 192320Z 2000/2024 19008KT P6SM SKC
     FM200400 28006KT P6SM SKC
     FM200700 32006KT P6SM SKC
     FM201200 33008KT P6SM SCT040
     FM201500 32009KT P6SM BKN040=



000
FTUS43 KARX 192320
TAFRST
TAF
KRST 192320Z 2000/2024 25012KT P6SM SKC
     FM200300 29011KT P6SM SKC
     FM200600 32011KT P6SM SKC
     FM201200 32008KT P6SM SCT030
     FM201700 33012G20KT P6SM SCT035=



000
FTUS43 KARX 192320
TAFRST
TAF
KRST 192320Z 2000/2024 25012KT P6SM SKC
     FM200300 29011KT P6SM SKC
     FM200600 32011KT P6SM SKC
     FM201200 32008KT P6SM SCT030
     FM201700 33012G20KT P6SM SCT035=



000
FTUS43 KARX 192320
TAFLSE
TAF
KLSE 192320Z 2000/2024 19008KT P6SM SKC
     FM200400 28006KT P6SM SKC
     FM200700 32006KT P6SM SKC
     FM201200 33008KT P6SM SCT040
     FM201500 32009KT P6SM BKN040=



000
FTUS43 KARX 191720
TAFLSE
TAF
KLSE 191720Z 1918/2018 19013G22KT P6SM BKN130
     FM192300 19009KT P6SM SKC
     FM200600 30006KT P6SM SKC
     FM201200 34006KT P6SM SCT040
     FM201500 32008KT P6SM BKN035=



000
FTUS43 KARX 191720
TAFLSE
TAF
KLSE 191720Z 1918/2018 19013G22KT P6SM BKN130
     FM192300 19009KT P6SM SKC
     FM200600 30006KT P6SM SKC
     FM201200 34006KT P6SM SCT040
     FM201500 32008KT P6SM BKN035=



000
FTUS43 KARX 191720
TAFRST
TAF
KRST 191720Z 1918/2018 22017G26KT P6SM BKN120
     FM192100 22013G21KT P6SM SKC
     FM192300 23012KT P6SM SKC
     FM200500 30011KT P6SM SKC
     FM201200 32008KT P6SM SCT030=



000
FTUS43 KARX 191720
TAFRST
TAF
KRST 191720Z 1918/2018 22017G26KT P6SM BKN120
     FM192100 22013G21KT P6SM SKC
     FM192300 23012KT P6SM SKC
     FM200500 30011KT P6SM SKC
     FM201200 32008KT P6SM SCT030=



    US Dept of Commerce
    National Oceanic and Atmospheric Administration
    National Weather Service
    1325 East West Highway
    Silver Spring, MD 20910
    Page Author: NWS Internet Services Team
Disclaimer
Information Quality
Credits
Glossary
Privacy Policy
Freedom of Information Act (FOIA)
About Us
Career Opportunities